createdAt,value
2023-02-19T00:00:45.256Z,601.00
2023-02-19T00:01:45.237Z,601.00
2023-02-19T00:02:45.198Z,601.00
2023-02-19T00:03:45.206Z,600.00
2023-02-19T00:04:45.163Z,599.00
2023-02-19T00:05:45.132Z,604.00
2023-02-19T00:06:45.107Z,602.00
2023-02-19T00:07:45.101Z,601.00
2023-02-19T00:08:45.071Z,599.00
2023-02-19T00:09:45.050Z,598.00
2023-02-19T00:10:45.045Z,600.00
2023-02-19T00:11:45.011Z,599.00
2023-02-19T00:12:44.973Z,599.00
2023-02-19T00:13:44.955Z,601.00
2023-02-19T00:14:44.930Z,599.00
2023-02-19T00:15:44.970Z,598.00
2023-02-19T00:16:44.874Z,599.00
2023-02-19T00:17:44.842Z,603.00
2023-02-19T00:18:44.811Z,602.00
2023-02-19T00:19:44.788Z,599.00
2023-02-19T00:20:44.770Z,599.00
2023-02-19T00:21:44.756Z,600.00
2023-02-19T00:22:44.700Z,601.00
2023-02-19T00:23:44.674Z,599.00
2023-02-19T00:24:44.641Z,599.00
2023-02-19T00:25:44.617Z,599.00
2023-02-19T00:26:44.586Z,599.00
2023-02-19T00:27:44.551Z,593.00
2023-02-19T00:28:44.515Z,592.00
2023-02-19T00:29:44.484Z,592.00
2023-02-19T00:30:44.456Z,591.00
2023-02-19T00:31:44.578Z,591.00
2023-02-19T00:32:44.400Z,586.00
2023-02-19T00:33:44.370Z,588.00
2023-02-19T00:34:44.341Z,589.00
2023-02-19T00:35:44.320Z,586.00
2023-02-19T00:36:44.321Z,586.00
2023-02-19T00:37:44.264Z,586.00
2023-02-19T00:38:44.239Z,582.00
2023-02-19T00:39:44.221Z,579.00
2023-02-19T00:40:44.192Z,582.00
2023-02-19T00:41:44.175Z,582.00
2023-02-19T00:42:44.151Z,582.00
2023-02-19T00:43:44.136Z,580.00
2023-02-19T00:44:44.114Z,582.00
2023-02-19T00:45:44.058Z,575.00
2023-02-19T00:46:44.106Z,578.00
2023-02-19T00:47:44.005Z,577.00
2023-02-19T00:48:43.983Z,577.00
2023-02-19T00:49:43.975Z,573.00
2023-02-19T00:50:43.942Z,574.00
2023-02-19T00:51:43.908Z,574.00
2023-02-19T00:52:43.886Z,573.00
2023-02-19T00:53:43.858Z,572.00
2023-02-19T00:54:43.834Z,571.00
2023-02-19T00:55:43.800Z,567.00
2023-02-19T00:56:43.777Z,569.00
2023-02-19T00:57:43.743Z,567.00
2023-02-19T00:58:43.708Z,566.00
2023-02-19T00:59:43.679Z,565.00
2023-02-19T01:00:43.663Z,565.00
2023-02-19T01:01:43.743Z,565.00
2023-02-19T01:02:43.623Z,562.00
2023-02-19T01:03:43.591Z,560.00
2023-02-19T01:04:43.574Z,560.00
2023-02-19T01:05:43.519Z,558.00
2023-02-19T01:06:43.474Z,556.00
2023-02-19T01:07:43.449Z,558.00
2023-02-19T01:08:43.412Z,557.00
2023-02-19T01:09:43.383Z,556.00
2023-02-19T01:10:43.350Z,553.00
2023-02-19T01:11:43.356Z,552.00
2023-02-19T01:12:43.288Z,549.00
2023-02-19T01:13:43.270Z,551.00
2023-02-19T01:14:43.245Z,550.00
2023-02-19T01:15:43.234Z,549.00
2023-02-19T01:16:43.193Z,550.00
2023-02-19T01:17:43.166Z,547.00
2023-02-19T01:18:43.155Z,546.00
2023-02-19T01:19:43.116Z,546.00
2023-02-19T01:20:43.097Z,547.00
2023-02-19T01:21:43.056Z,548.00
2023-02-19T01:22:43.035Z,549.00
2023-02-19T01:23:43.001Z,542.00
2023-02-19T01:24:42.980Z,542.00
2023-02-19T01:25:42.980Z,538.00
2023-02-19T01:26:42.931Z,536.00
2023-02-19T01:27:42.934Z,535.00
2023-02-19T01:28:42.920Z,535.00
2023-02-19T01:29:42.891Z,534.00
2023-02-19T01:30:42.864Z,532.00
2023-02-19T01:31:42.955Z,531.00
2023-02-19T01:32:42.825Z,532.00
2023-02-19T01:33:42.796Z,534.00
2023-02-19T01:34:42.771Z,528.00
2023-02-19T01:35:42.749Z,526.00
2023-02-19T01:36:42.713Z,530.00
2023-02-19T01:37:42.706Z,529.00
2023-02-19T01:38:42.673Z,527.00
2023-02-19T01:39:42.636Z,523.00
2023-02-19T01:40:42.605Z,525.00
2023-02-19T01:41:42.564Z,526.00
2023-02-19T01:42:42.547Z,525.00
2023-02-19T01:43:42.569Z,525.00
2023-02-19T01:44:42.479Z,524.00
2023-02-19T01:45:42.437Z,523.00
2023-02-19T01:46:42.491Z,522.00
2023-02-19T01:47:42.375Z,523.00
2023-02-19T01:48:42.354Z,523.00
2023-02-19T01:49:42.334Z,523.00
2023-02-19T01:50:42.296Z,523.00
2023-02-19T01:51:42.263Z,516.00
2023-02-19T01:52:42.253Z,519.00
2023-02-19T01:53:42.218Z,520.00
2023-02-19T01:54:42.189Z,518.00
2023-02-19T01:55:42.162Z,517.00
2023-02-19T01:56:42.138Z,512.00
2023-02-19T01:57:42.114Z,513.00
2023-02-19T01:58:42.098Z,514.00
2023-02-19T01:59:42.061Z,514.00
2023-02-19T02:00:42.056Z,515.00
2023-02-19T02:01:42.059Z,514.00
2023-02-19T02:02:41.964Z,514.00
2023-02-19T02:03:41.965Z,514.00
2023-02-19T02:04:41.893Z,515.00
2023-02-19T02:05:41.857Z,515.00
2023-02-19T02:06:41.835Z,515.00
2023-02-19T02:07:41.803Z,515.00
2023-02-19T02:08:41.782Z,515.00
2023-02-19T02:09:41.747Z,515.00
2023-02-19T02:10:41.735Z,511.00
2023-02-19T02:11:41.701Z,512.00
2023-02-19T02:12:41.669Z,511.00
2023-02-19T02:13:41.633Z,506.00
2023-02-19T02:14:41.606Z,505.00
2023-02-19T02:15:41.576Z,506.00
2023-02-19T02:16:41.548Z,508.00
2023-02-19T02:17:41.524Z,505.00
2023-02-19T02:18:41.510Z,507.00
2023-02-19T02:19:41.472Z,502.00
2023-02-19T02:20:41.445Z,504.00
2023-02-19T02:21:41.416Z,505.00
2023-02-19T02:22:41.394Z,507.00
2023-02-19T02:23:41.365Z,503.00
2023-02-19T02:24:41.348Z,504.00
2023-02-19T02:25:41.327Z,503.00
2023-02-19T02:26:41.292Z,504.00
2023-02-19T02:27:41.265Z,507.00
2023-02-19T02:28:41.273Z,505.00
2023-02-19T02:29:41.218Z,507.00
2023-02-19T02:30:41.202Z,501.00
2023-02-19T02:31:41.283Z,500.00
2023-02-19T02:32:41.146Z,503.00
2023-02-19T02:33:41.128Z,503.00
2023-02-19T02:34:41.095Z,505.00
2023-02-19T02:35:41.085Z,500.00
2023-02-19T02:36:41.053Z,500.00
2023-02-19T02:37:41.024Z,505.00
2023-02-19T02:38:41.009Z,510.00
2023-02-19T02:39:40.998Z,507.00
2023-02-19T02:40:40.962Z,508.00
2023-02-19T02:41:40.938Z,506.00
2023-02-19T02:42:40.915Z,502.00
2023-02-19T02:43:40.879Z,506.00
2023-02-19T02:44:40.869Z,506.00
2023-02-19T02:45:40.854Z,507.00
2023-02-19T02:46:40.809Z,508.00
2023-02-19T02:47:40.767Z,504.00
2023-02-19T02:48:40.737Z,505.00
2023-02-19T02:49:40.710Z,503.00
2023-02-19T02:50:40.672Z,504.00
2023-02-19T02:51:40.638Z,505.00
2023-02-19T02:52:40.607Z,502.00
2023-02-19T02:53:40.575Z,501.00
2023-02-19T02:54:40.554Z,502.00
2023-02-19T02:55:40.540Z,505.00
2023-02-19T02:56:40.517Z,504.00
2023-02-19T02:57:40.475Z,501.00
2023-02-19T02:58:40.454Z,500.00
2023-02-19T02:59:40.442Z,506.00
2023-02-19T03:00:40.409Z,507.00
2023-02-19T03:01:40.395Z,506.00
2023-02-19T03:02:40.367Z,508.00
2023-02-19T03:03:40.349Z,505.00
2023-02-19T03:04:40.336Z,500.00
2023-02-19T03:05:40.312Z,505.00
2023-02-19T03:06:40.287Z,505.00
2023-02-19T03:07:40.262Z,506.00
2023-02-19T03:08:40.241Z,507.00
2023-02-19T03:09:40.222Z,507.00
2023-02-19T03:10:40.225Z,501.00
2023-02-19T03:11:40.165Z,506.00
2023-02-19T03:12:40.144Z,506.00
2023-02-19T03:13:40.132Z,506.00
2023-02-19T03:14:40.097Z,506.00
2023-02-19T03:15:40.079Z,505.00
2023-02-19T03:16:42.457Z,497.00
2023-02-19T03:17:40.030Z,506.00
2023-02-19T03:18:39.999Z,507.00
2023-02-19T03:19:39.970Z,505.00
2023-02-19T03:20:39.958Z,506.00
2023-02-19T03:21:39.925Z,506.00
2023-02-19T03:22:39.904Z,506.00
2023-02-19T03:23:39.891Z,506.00
2023-02-19T03:24:39.869Z,506.00
2023-02-19T03:25:39.845Z,505.00
2023-02-19T03:26:39.810Z,505.00
2023-02-19T03:27:39.777Z,502.00
2023-02-19T03:28:39.757Z,502.00
2023-02-19T03:29:39.732Z,505.00
2023-02-19T03:30:39.706Z,506.00
2023-02-19T03:31:39.757Z,505.00
2023-02-19T03:32:39.654Z,505.00
2023-02-19T03:33:39.635Z,500.00
2023-02-19T03:34:39.610Z,502.00
2023-02-19T03:35:39.582Z,500.00
2023-02-19T03:36:39.547Z,503.00
2023-02-19T03:37:39.522Z,502.00
2023-02-19T03:38:39.503Z,505.00
2023-02-19T03:39:39.481Z,502.00
2023-02-19T03:40:39.453Z,502.00
2023-02-19T03:41:39.418Z,503.00
2023-02-19T03:42:39.393Z,503.00
2023-02-19T03:43:39.366Z,504.00
2023-02-19T03:44:39.342Z,508.00
2023-02-19T03:45:39.390Z,508.00
2023-02-19T03:46:39.288Z,506.00
2023-02-19T03:47:39.260Z,505.00
2023-02-19T03:48:39.253Z,506.00
2023-02-19T03:49:39.231Z,506.00
2023-02-19T03:50:39.239Z,506.00
2023-02-19T03:51:39.189Z,507.00
2023-02-19T03:52:39.164Z,507.00
2023-02-19T03:53:39.141Z,508.00
2023-02-19T03:54:39.105Z,510.00
2023-02-19T03:55:39.083Z,508.00
2023-02-19T03:56:39.068Z,500.00
2023-02-19T03:57:39.045Z,503.00
2023-02-19T03:58:39.026Z,504.00
2023-02-19T03:59:39.000Z,507.00
2023-02-19T04:00:38.987Z,507.00
2023-02-19T04:01:38.973Z,509.00
2023-02-19T04:02:38.947Z,506.00
2023-02-19T04:03:38.928Z,506.00
2023-02-19T04:04:38.917Z,511.00
2023-02-19T04:05:38.887Z,508.00
2023-02-19T04:06:38.863Z,504.00
2023-02-19T04:07:38.847Z,500.00
2023-02-19T04:08:38.800Z,501.00
2023-02-19T04:09:38.784Z,501.00
2023-02-19T04:10:38.745Z,502.00
2023-02-19T04:11:38.725Z,505.00
2023-02-19T04:12:38.697Z,510.00
2023-02-19T04:13:38.667Z,508.00
2023-02-19T04:14:38.633Z,502.00
2023-02-19T04:15:38.616Z,505.00
2023-02-19T04:16:38.618Z,506.00
2023-02-19T04:17:38.553Z,507.00
2023-02-19T04:18:38.538Z,509.00
2023-02-19T04:19:38.520Z,507.00
2023-02-19T04:20:38.496Z,500.00
2023-02-19T04:21:38.488Z,503.00
2023-02-19T04:22:38.520Z,502.00
2023-02-19T04:23:38.436Z,509.00
2023-02-19T04:24:38.411Z,512.00
2023-02-19T04:25:38.391Z,509.00
2023-02-19T04:26:38.370Z,504.00
2023-02-19T04:27:38.357Z,506.00
2023-02-19T04:28:38.327Z,504.00
2023-02-19T04:29:39.356Z,508.00
2023-02-19T04:30:38.388Z,509.00
2023-02-19T04:31:38.259Z,512.00
2023-02-19T04:32:38.230Z,503.00
2023-02-19T04:33:38.203Z,506.00
2023-02-19T04:34:38.199Z,508.00
2023-02-19T04:35:38.161Z,508.00
2023-02-19T04:36:38.141Z,505.00
2023-02-19T04:37:38.114Z,507.00
2023-02-19T04:38:38.100Z,501.00
2023-02-19T04:39:38.079Z,501.00
2023-02-19T04:40:38.052Z,505.00
2023-02-19T04:41:38.023Z,505.00
2023-02-19T04:42:37.991Z,510.00
2023-02-19T04:43:37.967Z,509.00
2023-02-19T04:44:37.938Z,506.00
2023-02-19T04:45:37.916Z,509.00
2023-02-19T04:46:37.888Z,506.00
2023-02-19T04:47:37.853Z,506.00
2023-02-19T04:48:37.826Z,506.00
2023-02-19T04:49:37.805Z,506.00
2023-02-19T04:50:37.778Z,505.00
2023-02-19T04:51:37.761Z,507.00
2023-02-19T04:52:37.727Z,508.00
2023-02-19T04:53:37.696Z,505.00
2023-02-19T04:54:37.675Z,504.00
2023-02-19T04:55:37.662Z,502.00
2023-02-19T04:56:37.639Z,503.00
2023-02-19T04:57:37.614Z,504.00
2023-02-19T04:58:37.586Z,505.00
2023-02-19T04:59:37.569Z,505.00
2023-02-19T05:00:37.555Z,503.00
2023-02-19T05:01:37.571Z,503.00
2023-02-19T05:02:37.517Z,504.00
2023-02-19T05:03:37.488Z,506.00
2023-02-19T05:04:37.525Z,504.00
2023-02-19T05:05:37.434Z,506.00
2023-02-19T05:06:37.405Z,502.00
2023-02-19T05:07:37.392Z,502.00
2023-02-19T05:08:37.363Z,503.00
2023-02-19T05:09:37.341Z,503.00
2023-02-19T05:10:37.328Z,506.00
2023-02-19T05:11:37.301Z,505.00
2023-02-19T05:12:37.282Z,504.00
2023-02-19T05:13:37.307Z,502.00
2023-02-19T05:14:37.228Z,501.00
2023-02-19T05:15:37.222Z,501.00
2023-02-19T05:16:37.166Z,500.00
2023-02-19T05:17:37.135Z,504.00
2023-02-19T05:18:37.123Z,502.00
2023-02-19T05:19:37.082Z,502.00
2023-02-19T05:20:37.092Z,504.00
2023-02-19T05:21:37.039Z,508.00
2023-02-19T05:22:37.019Z,508.00
2023-02-19T05:23:36.985Z,506.00
2023-02-19T05:24:36.973Z,501.00
2023-02-19T05:25:36.942Z,506.00
2023-02-19T05:26:36.908Z,507.00
2023-02-19T05:27:36.892Z,513.00
2023-02-19T05:28:36.858Z,511.00
2023-02-19T05:29:36.840Z,511.00
2023-02-19T05:30:36.802Z,511.00
2023-02-19T05:31:36.849Z,511.00
2023-02-19T05:32:36.770Z,510.00
2023-02-19T05:33:36.731Z,510.00
2023-02-19T05:34:36.705Z,513.00
2023-02-19T05:35:36.685Z,505.00
2023-02-19T05:36:36.666Z,507.00
2023-02-19T05:37:36.638Z,508.00
2023-02-19T05:38:36.616Z,509.00
2023-02-19T05:39:36.587Z,508.00
2023-02-19T05:40:36.569Z,511.00
2023-02-19T05:41:36.541Z,507.00
2023-02-19T05:42:36.532Z,504.00
2023-02-19T05:43:36.507Z,506.00
2023-02-19T05:44:36.477Z,506.00
2023-02-19T05:45:36.464Z,509.00
2023-02-19T05:46:36.481Z,509.00
2023-02-19T05:47:36.424Z,509.00
2023-02-19T05:48:36.397Z,514.00
2023-02-19T05:49:36.365Z,514.00
2023-02-19T05:50:38.210Z,515.00
2023-02-19T05:51:36.315Z,516.00
2023-02-19T05:52:36.282Z,516.00
2023-02-19T05:53:36.253Z,514.00
2023-02-19T05:54:36.225Z,517.00
2023-02-19T05:55:36.211Z,512.00
2023-02-19T05:56:36.180Z,515.00
2023-02-19T05:57:36.155Z,512.00
2023-02-19T05:58:36.121Z,508.00
2023-02-19T05:59:36.113Z,512.00
2023-02-19T06:00:36.065Z,516.00
2023-02-19T06:01:36.041Z,517.00
2023-02-19T06:02:36.047Z,517.00
2023-02-19T06:03:35.985Z,517.00
2023-02-19T06:04:35.979Z,515.00
2023-02-19T06:05:35.942Z,515.00
2023-02-19T06:06:35.910Z,517.00
2023-02-19T06:07:35.885Z,519.00
2023-02-19T06:08:35.877Z,520.00
2023-02-19T06:09:35.845Z,518.00
2023-02-19T06:10:35.804Z,519.00
2023-02-19T06:11:35.778Z,517.00
2023-02-19T06:12:35.759Z,518.00
2023-02-19T06:13:35.727Z,514.00
2023-02-19T06:14:35.686Z,515.00
2023-02-19T06:15:35.659Z,511.00
2023-02-19T06:16:35.638Z,509.00
2023-02-19T06:17:35.612Z,511.00
2023-02-19T06:18:35.601Z,515.00
2023-02-19T06:19:35.569Z,515.00
2023-02-19T06:20:35.531Z,512.00
2023-02-19T06:21:35.504Z,514.00
2023-02-19T06:22:35.493Z,514.00
2023-02-19T06:23:35.467Z,514.00
2023-02-19T06:24:35.433Z,513.00
2023-02-19T06:25:35.395Z,514.00
2023-02-19T06:26:35.410Z,514.00
2023-02-19T06:27:35.332Z,515.00
2023-02-19T06:28:35.304Z,510.00
2023-02-19T06:29:35.277Z,514.00
2023-02-19T06:30:35.275Z,513.00
2023-02-19T06:31:35.324Z,512.00
2023-02-19T06:32:35.218Z,514.00
2023-02-19T06:33:35.178Z,513.00
2023-02-19T06:34:35.150Z,510.00
2023-02-19T06:35:35.118Z,509.00
2023-02-19T06:36:35.080Z,509.00
2023-02-19T06:37:35.059Z,510.00
2023-02-19T06:38:35.032Z,512.00
2023-02-19T06:39:35.010Z,511.00
2023-02-19T06:40:34.980Z,511.00
2023-02-19T06:41:34.978Z,512.00
2023-02-19T06:42:34.950Z,514.00
2023-02-19T06:43:34.938Z,515.00
2023-02-19T06:44:34.913Z,512.00
2023-02-19T06:45:34.894Z,510.00
2023-02-19T06:46:34.873Z,511.00
2023-02-19T06:47:34.850Z,510.00
2023-02-19T06:48:34.828Z,507.00
2023-02-19T06:49:34.801Z,508.00
2023-02-19T06:50:34.789Z,503.00
2023-02-19T06:51:34.762Z,508.00
2023-02-19T06:52:34.737Z,505.00
2023-02-19T06:53:34.704Z,510.00
2023-02-19T06:54:34.676Z,509.00
2023-02-19T06:55:34.665Z,511.00
2023-02-19T06:56:34.635Z,509.00
2023-02-19T06:57:34.621Z,508.00
2023-02-19T06:58:34.613Z,510.00
2023-02-19T06:59:34.568Z,509.00
2023-02-19T07:00:34.576Z,509.00
2023-02-19T07:01:34.514Z,511.00
2023-02-19T07:02:34.487Z,511.00
2023-02-19T07:03:34.504Z,512.00
2023-02-19T07:04:34.446Z,513.00
2023-02-19T07:05:34.418Z,515.00
2023-02-19T07:06:34.399Z,513.00
2023-02-19T07:07:34.374Z,509.00
2023-02-19T07:08:34.428Z,511.00
2023-02-19T07:09:34.368Z,512.00
2023-02-19T07:10:34.310Z,515.00
2023-02-19T07:11:34.277Z,515.00
2023-02-19T07:12:34.273Z,516.00
2023-02-19T07:13:34.244Z,515.00
2023-02-19T07:14:34.246Z,515.00
2023-02-19T07:15:34.211Z,516.00
2023-02-19T07:16:34.240Z,514.00
2023-02-19T07:17:34.161Z,515.00
2023-02-19T07:18:34.170Z,514.00
2023-02-19T07:19:34.122Z,516.00
2023-02-19T07:20:34.089Z,516.00
2023-02-19T07:21:34.073Z,517.00
2023-02-19T07:22:34.045Z,519.00
2023-02-19T07:23:34.029Z,520.00
2023-02-19T07:24:34.000Z,521.00
2023-02-19T07:25:33.993Z,516.00
2023-02-19T07:26:33.964Z,517.00
2023-02-19T07:27:33.935Z,518.00
2023-02-19T07:28:33.930Z,517.00
2023-02-19T07:29:33.898Z,519.00
2023-02-19T07:30:33.898Z,514.00
2023-02-19T07:31:33.991Z,515.00
2023-02-19T07:32:33.834Z,514.00
2023-02-19T07:33:33.818Z,518.00
2023-02-19T07:34:33.801Z,518.00
2023-02-19T07:35:33.774Z,517.00
2023-02-19T07:36:33.765Z,516.00
2023-02-19T07:37:33.738Z,515.00
2023-02-19T07:38:33.716Z,516.00
2023-02-19T07:39:33.702Z,515.00
2023-02-19T07:40:33.679Z,518.00
2023-02-19T07:41:33.653Z,518.00
2023-02-19T07:42:33.621Z,512.00
2023-02-19T07:43:33.602Z,511.00
2023-02-19T07:44:33.574Z,515.00
2023-02-19T07:45:33.560Z,514.00
2023-02-19T07:46:33.525Z,511.00
2023-02-19T07:47:33.508Z,516.00
2023-02-19T07:48:33.484Z,515.00
2023-02-19T07:49:33.477Z,514.00
2023-02-19T07:50:33.449Z,514.00
2023-02-19T07:51:33.427Z,513.00
2023-02-19T07:52:33.426Z,511.00
2023-02-19T07:53:33.388Z,512.00
2023-02-19T07:54:33.360Z,514.00
2023-02-19T07:55:33.325Z,515.00
2023-02-19T07:56:33.296Z,515.00
2023-02-19T07:57:33.267Z,515.00
2023-02-19T07:58:33.266Z,515.00
2023-02-19T07:59:33.233Z,519.00
2023-02-19T08:00:33.189Z,518.00
2023-02-19T08:01:33.251Z,518.00
2023-02-19T08:02:33.155Z,519.00
2023-02-19T08:03:33.152Z,520.00
2023-02-19T08:04:33.104Z,520.00
2023-02-19T08:05:33.082Z,521.00
2023-02-19T08:06:33.061Z,521.00
2023-02-19T08:07:33.027Z,521.00
2023-02-19T08:08:33.003Z,522.00
2023-02-19T08:09:33.007Z,522.00
2023-02-19T08:10:32.967Z,521.00
2023-02-19T08:11:32.937Z,524.00
2023-02-19T08:12:32.905Z,522.00
2023-02-19T08:13:32.878Z,523.00
2023-02-19T08:14:32.855Z,523.00
2023-02-19T08:15:32.838Z,523.00
2023-02-19T08:16:42.498Z,526.00
2023-02-19T08:17:33.770Z,526.00
2023-02-19T08:18:32.740Z,526.00
2023-02-19T08:19:32.709Z,526.00
2023-02-19T08:20:32.685Z,525.00
2023-02-19T08:21:34.379Z,526.00
2023-02-19T08:22:32.614Z,522.00
2023-02-19T08:23:32.608Z,522.00
2023-02-19T08:24:32.559Z,522.00
2023-02-19T08:25:32.527Z,522.00
2023-02-19T08:26:32.512Z,522.00
2023-02-19T08:27:32.478Z,523.00
2023-02-19T08:28:32.444Z,525.00
2023-02-19T08:29:32.426Z,522.00
2023-02-19T08:30:32.506Z,524.00
2023-02-19T08:31:32.485Z,521.00
2023-02-19T08:32:32.353Z,521.00
2023-02-19T08:33:32.324Z,519.00
2023-02-19T08:34:32.296Z,523.00
2023-02-19T08:35:32.265Z,523.00
2023-02-19T08:37:32.204Z,523.00
2023-02-19T08:38:32.170Z,528.00
2023-02-19T08:39:32.133Z,534.00
2023-02-19T08:40:32.136Z,539.00
2023-02-19T08:41:32.087Z,544.00
2023-02-19T08:42:32.055Z,549.00
2023-02-19T08:43:32.021Z,545.00
2023-02-19T08:44:31.990Z,539.00
2023-02-19T08:45:31.963Z,538.00
2023-02-19T08:46:34.096Z,538.00
2023-02-19T08:47:31.942Z,538.00
2023-02-19T08:48:31.940Z,538.00
2023-02-19T08:49:31.908Z,537.00
2023-02-19T08:50:31.901Z,538.00
2023-02-19T08:51:31.870Z,534.00
2023-02-19T08:52:31.856Z,530.00
2023-02-19T08:53:31.837Z,532.00
2023-02-19T08:54:31.803Z,533.00
2023-02-19T08:55:31.782Z,535.00
2023-02-19T08:56:31.741Z,537.00
2023-02-19T08:57:31.703Z,536.00
2023-02-19T08:58:31.676Z,536.00
2023-02-19T08:59:31.648Z,536.00
2023-02-19T09:00:31.614Z,537.00
2023-02-19T09:01:31.628Z,537.00
2023-02-19T09:02:31.544Z,537.00
2023-02-19T09:03:31.509Z,537.00
2023-02-19T09:04:31.553Z,539.00
2023-02-19T09:05:31.453Z,541.00
2023-02-19T09:06:31.411Z,546.00
2023-02-19T09:07:31.368Z,552.00
2023-02-19T09:08:31.344Z,552.00
2023-02-19T09:09:31.304Z,551.00
2023-02-19T09:10:31.281Z,556.00
2023-02-19T09:11:31.247Z,556.00
2023-02-19T09:12:31.216Z,557.00
2023-02-19T09:13:31.182Z,557.00
2023-02-19T11:45:26.078Z,563.00
2023-02-19T11:46:26.153Z,562.00
2023-02-19T11:47:26.024Z,561.00
2023-02-19T11:48:25.997Z,561.00
2023-02-19T11:49:25.978Z,563.00
2023-02-19T11:50:25.925Z,560.00
2023-02-19T11:51:25.897Z,560.00
2023-02-19T11:52:25.862Z,564.00
2023-02-19T11:53:25.829Z,562.00
2023-02-19T11:54:25.824Z,566.00
2023-02-19T11:55:25.752Z,557.00
2023-02-19T11:56:25.716Z,560.00
2023-02-19T11:57:25.684Z,560.00
2023-02-19T11:58:25.651Z,562.00
2023-02-19T11:59:25.622Z,564.00
2023-02-19T12:00:25.595Z,562.00
2023-02-19T12:01:25.553Z,563.00
2023-02-19T12:02:25.521Z,566.00
2023-02-19T12:03:25.490Z,560.00
2023-02-19T12:04:25.520Z,560.00
2023-02-19T12:05:25.482Z,556.00
2023-02-19T12:06:25.390Z,561.00
2023-02-19T12:07:25.362Z,558.00
2023-02-19T12:08:25.315Z,567.00
2023-02-19T12:09:25.303Z,562.00
2023-02-19T12:10:25.266Z,561.00
2023-02-19T12:11:25.258Z,560.00
2023-02-19T12:12:25.211Z,562.00
2023-02-19T12:13:25.181Z,561.00
2023-02-19T12:14:25.215Z,562.00
2023-02-19T12:15:25.124Z,551.00
2023-02-19T12:16:25.166Z,565.00
2023-02-19T12:17:25.049Z,559.00
2023-02-19T12:18:25.015Z,563.00
2023-02-19T12:19:24.996Z,562.00
2023-02-19T12:20:24.946Z,559.00
2023-02-19T12:21:24.889Z,564.00
2023-02-19T12:22:24.851Z,560.00
2023-02-19T12:23:24.816Z,562.00
2023-02-19T12:24:24.852Z,566.00
2023-02-19T12:25:24.745Z,560.00
2023-02-19T12:26:24.721Z,559.00
2023-02-19T12:27:24.684Z,559.00
2023-02-19T12:28:24.641Z,564.00
2023-02-19T12:29:24.598Z,560.00
2023-02-19T12:30:24.607Z,558.00
2023-02-19T12:31:24.593Z,558.00
2023-02-19T12:32:24.479Z,559.00
2023-02-19T12:33:24.521Z,559.00
2023-02-19T12:34:24.430Z,563.00
2023-02-19T12:35:24.373Z,558.00
2023-02-19T12:36:24.332Z,559.00
2023-02-19T12:37:24.305Z,560.00
2023-02-19T12:38:24.279Z,560.00
2023-02-19T12:39:24.252Z,559.00
2023-02-19T12:40:24.203Z,559.00
2023-02-19T12:41:24.173Z,562.00
2023-02-19T12:42:24.138Z,554.00
2023-02-19T12:43:24.113Z,561.00
2023-02-19T12:44:24.114Z,561.00
2023-02-19T12:45:24.033Z,560.00
2023-02-19T12:46:24.039Z,561.00
2023-02-19T12:47:23.946Z,562.00
2023-02-19T12:48:23.907Z,561.00
2023-02-19T12:49:23.869Z,562.00
2023-02-19T12:50:23.841Z,555.00
2023-02-19T12:51:23.808Z,560.00
2023-02-19T12:52:23.756Z,556.00
2023-02-19T12:53:23.715Z,561.00
2023-02-19T12:54:23.830Z,556.00
2023-02-19T12:55:23.673Z,557.00
2023-02-19T12:56:23.600Z,561.00
2023-02-19T12:57:23.569Z,558.00
2023-02-19T12:58:23.524Z,558.00
2023-02-19T12:59:23.494Z,556.00
2023-02-19T13:00:23.456Z,555.00
2023-02-19T13:02:23.425Z,558.00
2023-02-19T13:03:23.374Z,556.00
2023-02-19T13:04:23.508Z,561.00
2023-02-19T13:05:23.322Z,552.00
2023-02-19T13:06:23.280Z,553.00
2023-02-19T13:07:23.250Z,554.00
2023-02-19T13:08:23.212Z,555.00
2023-02-19T13:09:23.185Z,554.00
2023-02-19T13:10:23.146Z,559.00
2023-02-19T13:11:23.144Z,557.00
2023-02-19T13:12:23.102Z,559.00
2023-02-19T13:13:24.028Z,556.00
2023-02-19T13:14:23.025Z,558.00
2023-02-19T13:15:22.956Z,564.00
2023-02-19T13:16:22.970Z,562.00
2023-02-19T13:17:22.864Z,560.00
2023-02-19T13:18:22.952Z,561.00
2023-02-19T13:19:22.775Z,562.00
2023-02-19T13:20:22.732Z,562.00
2023-02-19T13:21:22.724Z,564.00
2023-02-19T13:22:22.660Z,561.00
2023-02-19T13:23:22.631Z,561.00
2023-02-19T13:24:22.639Z,567.00
2023-02-19T13:25:22.559Z,567.00
2023-02-19T13:26:22.547Z,562.00
2023-02-19T13:27:22.502Z,563.00
2023-02-19T13:28:22.460Z,562.00
2023-02-19T13:29:22.416Z,559.00
2023-02-19T13:30:22.398Z,559.00
2023-02-19T13:31:22.463Z,560.00
2023-02-19T13:32:22.303Z,545.00
2023-02-19T13:33:22.273Z,553.00
2023-02-19T13:34:22.277Z,550.00
2023-02-19T13:35:22.184Z,550.00
2023-02-19T13:36:22.145Z,554.00
2023-02-19T13:37:22.100Z,549.00
2023-02-19T13:38:22.061Z,545.00
2023-02-19T13:39:22.027Z,536.00
2023-02-19T13:40:21.976Z,546.00
2023-02-19T13:41:21.935Z,543.00
2023-02-19T13:42:21.884Z,540.00
2023-02-19T13:43:21.834Z,530.00
2023-02-19T13:44:21.842Z,532.00
2023-02-19T13:45:21.744Z,534.00
2023-02-19T13:46:21.746Z,529.00
2023-02-19T13:47:21.653Z,521.00
2023-02-19T13:48:21.625Z,526.00
2023-02-19T13:49:21.581Z,525.00
2023-02-19T13:50:21.550Z,523.00
2023-02-19T13:51:21.496Z,522.00
2023-02-19T13:52:21.766Z,524.00
2023-02-19T13:53:21.407Z,525.00
2023-02-19T13:54:21.433Z,524.00
2023-02-19T13:55:21.323Z,523.00
2023-02-19T13:56:21.283Z,520.00
2023-02-19T13:57:21.228Z,519.00
2023-02-19T15:35:16.623Z,526.00
2023-02-19T15:36:16.588Z,526.00
2023-02-19T15:37:16.535Z,524.00
2023-02-19T15:38:16.508Z,518.00
2023-02-19T15:39:16.447Z,523.00
2023-02-19T15:40:16.408Z,524.00
2023-02-19T15:41:16.359Z,522.00
2023-02-19T15:42:16.324Z,517.00
2023-02-19T15:43:16.276Z,520.00
2023-02-19T15:44:16.286Z,521.00
2023-02-19T15:45:16.188Z,524.00
2023-02-19T15:46:16.178Z,523.00
2023-02-19T15:47:16.094Z,522.00
2023-02-19T15:48:16.055Z,521.00
2023-02-19T15:49:16.019Z,520.00
2023-02-19T15:50:15.968Z,527.00
2023-02-19T15:51:15.929Z,522.00
2023-02-19T15:52:15.878Z,526.00
2023-02-19T15:53:15.834Z,526.00
2023-02-19T15:54:15.790Z,526.00
2023-02-19T15:55:15.744Z,523.00
2023-02-19T15:56:15.701Z,523.00
2023-02-19T15:57:15.693Z,524.00
2023-02-19T15:58:15.626Z,525.00
2023-02-19T15:59:15.590Z,525.00
2023-02-19T16:00:15.561Z,530.00
2023-02-19T16:01:15.504Z,527.00
2023-02-19T16:02:15.490Z,527.00
2023-02-19T16:03:15.419Z,528.00
2023-02-19T16:04:15.380Z,528.00
2023-02-19T16:05:15.328Z,527.00
2023-02-19T16:06:15.301Z,530.00
2023-02-19T16:07:15.249Z,530.00
2023-02-19T16:08:15.211Z,534.00
2023-02-19T16:09:15.170Z,535.00
2023-02-19T16:10:15.133Z,531.00
2023-02-19T16:11:15.097Z,532.00
2023-02-19T16:12:15.052Z,532.00
2023-02-19T16:13:15.015Z,530.00
2023-02-19T16:14:14.971Z,533.00
2023-02-19T16:15:14.940Z,533.00
2023-02-19T16:16:15.420Z,533.00
2023-02-19T16:17:14.849Z,533.00
2023-02-19T16:18:14.817Z,534.00
2023-02-19T16:19:14.775Z,534.00
2023-02-19T16:20:14.729Z,533.00
2023-02-19T16:21:14.690Z,533.00
2023-02-19T16:22:14.653Z,535.00
2023-02-19T16:23:14.606Z,535.00
2023-02-19T16:24:14.594Z,540.00
2023-02-19T16:25:14.530Z,535.00
2023-02-19T16:26:14.491Z,537.00
2023-02-19T16:27:14.442Z,545.00
2023-02-19T16:28:14.409Z,537.00
2023-02-19T16:29:14.372Z,537.00
2023-02-19T16:30:14.361Z,538.00
2023-02-19T16:31:14.924Z,538.00
2023-02-19T16:32:14.355Z,541.00
2023-02-19T16:33:14.217Z,542.00
2023-02-19T16:34:14.183Z,540.00
2023-02-19T16:35:14.148Z,545.00
2023-02-19T16:36:14.106Z,551.00
2023-02-19T16:37:14.066Z,544.00
2023-02-19T16:38:14.026Z,548.00